Bei Facebook empfehlenBei Twitter postenGoogle plusPinterest

Das Wetter im Erzgebirge am 24.07.2017

Wetter und Klima am 24.07.2017 Holzhau im Erzgebirge (630m ü.NN)
Letzte gemessene Temperatur und Uhrzeit der Messung23:45:00 Uhr11.60 °C
Temperatur (Maximum / Höchstwert) und Uhrzeit der Messung12:45:00 Uhr21.90 °C
Temperatur (Minimum / Tiefstwert) und Uhrzeit der Messung05:45:007.90 °C
Errechneter Absolutwert der Temperaturschwankungen zwischen Tmin und Tmax des Tages14.00 K
Errechnete Tagesmitteltemperatur14.23229 °C
Gesamt - Niederschlag des Tages (in flüssiger Form)3.62 Liter / m²
Luftdruck (Maximum / Höchstwert) und Zeitpunkt der Messung01:00:00 Uhr1012.50 hPa
Luftdruck (Minimum / Tiefstwert) und Zeitpunkt der Messung20:45:00 Uhr1003.80 hPa
Errechneter Absolutwert der Luftdruckschwankungen des Tages8.70 hPa
Höchste gemessene Windgeschwindigkeit und Uhrzeit der Messung13:45:00 Uhr40.32 km/h
Errechnete Windhäufigkeit in Relation zu den Messwerten des Tages15.62500 %
Niedrigste Windkühle (Windchill) und Zeitpunkt der Messung06:30:00 Uhr7.80 °C
Taupunkt (Maximum / Höchstwert) und Uhrzeit der Messung09:00:00 Uhr12.30 °C
Taupunkt (Minimum / Tiefstwert) und Uhrzeit der Messung05:15:006.70 °C
Anzahl der automatisch eingelesenen Messwerte 96

Detaillierte Wetter- und Klima- Messwerte für den 24.07.2017 in Holzhau im Erzgebirge (630m ü.NN)
ZeitTemperaturLuftdruckRel. LuftfeuchteWindWindrichtungWindchillTaupunktNiederschlag l/m²
23:45:0011.60 °C1004.00 hPa92.00 %10.30 °C3.62
23:30:0011.80 °C1003.90 hPa92.00 %10.50 °C3.62
23:15:0011.90 °C1003.90 hPa92.00 %10.60 °C3.62
23:00:0011.90 °C1003.90 hPa92.00 %10.60 °C3.62
22:45:0011.90 °C1004.00 hPa91.00 %10.50 °C3.62
22:30:0011.90 °C1004.30 hPa91.00 %10.50 °C3.62
22:15:0011.90 °C1004.30 hPa90.00 %10.30 °C3.62
22:00:0012.10 °C1004.30 hPa90.00 %10.50 °C3.62
21:45:0012.20 °C1004.30 hPa90.00 %10.60 °C3.62
21:30:0012.30 °C1004.20 hPa90.00 %10.70 °C3.10
21:15:0012.40 °C1004.20 hPa89.00 %10.60 °C3.10
21:00:0012.70 °C1004.10 hPa89.00 %10.90 °C3.10
20:45:0012.90 °C1003.80 hPa89.00 %11.10 °C3.10
20:30:0013.20 °C1003.90 hPa89.00 %11.40 °C3.10
20:15:0013.30 °C1003.90 hPa88.00 %11.40 °C3.10
20:00:0013.50 °C1004.30 hPa87.00 %11.40 °C2.59
19:45:0013.60 °C1004.30 hPa88.00 %11.70 °C2.59
19:30:0013.50 °C1004.20 hPa86.00 %11.20 °C2.59
19:15:0013.60 °C1004.50 hPa85.00 %11.10 °C2.07
19:00:0013.90 °C1004.50 hPa84.00 %11.20 °C1.03
18:45:0014.50 °C1004.50 hPa80.00 %11.10 °C0.51
18:30:0015.50 °C1004.30 hPa75.00 %11.10 °C 
18:15:0016.40 °C1004.10 hPa71.00 %11.10 °C 
18:00:0017.10 °C1004.10 hPa69.00 %11.40 °C 
17:45:0017.60 °C1004.20 hPa68.00 %14.40 km/hOSO17.60 °C11.60 °C 
17:30:0017.90 °C1004.20 hPa67.00 %11.70 °C 
17:15:0017.60 °C1004.30 hPa67.00 %11.40 °C 
17:00:0017.80 °C1004.40 hPa65.00 %11.10 °C 
16:45:0018.20 °C1004.40 hPa64.00 %11.52 km/hSSO18.20 °C11.30 °C 
16:30:0018.70 °C1004.50 hPa63.00 %24.48 km/hS19.40 °C11.50 °C 
16:15:0019.10 °C1004.50 hPa62.00 %11.70 °C 
16:00:0019.10 °C1004.90 hPa61.00 %11.40 °C 
15:45:0018.90 °C1004.90 hPa60.00 %11.00 °C 
15:30:0018.80 °C1005.00 hPa60.00 %10.90 °C 
15:15:0018.80 °C1005.00 hPa59.00 %10.60 °C 
15:00:0019.00 °C1005.20 hPa58.00 %10.60 °C 
14:45:0019.90 °C1005.20 hPa54.00 %5.04 km/hOSO19.90 °C10.30 °C 
14:30:0021.10 °C1005.20 hPa52.00 %33.84 km/hSO21.90 °C10.90 °C 
14:15:0021.20 °C1005.20 hPa53.00 %34.92 km/hSO22.00 °C11.20 °C 
14:00:0021.50 °C1005.40 hPa52.00 %11.20 °C 
13:45:0021.60 °C1005.40 hPa55.00 %40.32 km/hSO22.40 °C12.20 °C 
13:30:0021.20 °C1005.70 hPa53.00 %11.20 °C 
13:15:0021.50 °C1006.00 hPa53.00 %19.44 km/hOSO22.80 °C11.50 °C 
13:00:0021.60 °C1006.20 hPa53.00 %11.60 °C 
12:45:0021.90 °C1006.40 hPa53.00 %11.90 °C 
12:30:0021.10 °C1006.40 hPa56.00 %12.00 °C 
12:15:0020.50 °C1006.70 hPa54.00 %10.90 °C 
12:00:0020.30 °C1006.90 hPa55.00 %11.00 °C 
11:45:0020.30 °C1006.80 hPa55.00 %15.48 km/hSSO20.30 °C11.00 °C 
11:30:0020.00 °C1007.10 hPa57.00 %16.92 km/hONO20.00 °C11.20 °C 
11:15:0019.30 °C1007.10 hPa57.00 %10.44 km/hSO19.30 °C10.60 °C 
11:00:0019.20 °C1007.40 hPa59.00 %11.00 °C 
10:45:0018.90 °C1007.50 hPa60.00 %11.00 °C 
10:30:0018.60 °C1007.50 hPa60.00 %10.70 °C 
10:15:0018.30 °C1007.50 hPa62.00 %10.90 °C 
10:00:0018.20 °C1007.60 hPa64.00 %11.30 °C 
09:45:0017.90 °C1007.60 hPa64.00 %19.44 km/hSSO18.60 °C11.00 °C 
09:30:0017.60 °C1007.80 hPa68.00 %11.60 °C 
09:15:0016.90 °C1007.70 hPa74.00 %12.20 °C 
09:00:0015.90 °C1007.90 hPa79.00 %12.30 °C 
08:45:0015.00 °C1007.90 hPa82.00 %12.00 °C 
08:30:0014.40 °C1008.10 hPa83.00 %11.60 °C 
08:15:0013.50 °C1008.00 hPa85.00 %11.00 °C 
08:00:0012.40 °C1008.30 hPa86.00 %10.10 °C 
07:45:0011.90 °C1008.50 hPa86.00 %9.60 °C 
07:30:0011.50 °C1008.50 hPa89.00 %9.80 °C 
07:15:0010.20 °C1008.70 hPa91.00 %8.80 °C 
07:00:009.30 °C1008.90 hPa92.00 %8.10 °C 
06:45:008.80 °C1009.00 hPa92.00 %2.52 km/hSO8.80 °C7.60 °C 
06:30:008.60 °C1009.00 hPa92.00 %21.96 km/hSO7.80 °C7.40 °C 
06:15:008.30 °C1009.30 hPa93.00 %7.20 °C 
06:00:008.20 °C1009.40 hPa93.00 %7.10 °C 
05:45:007.90 °C1009.50 hPa93.00 %6.80 °C 
05:30:008.10 °C1009.60 hPa93.00 %7.00 °C 
05:15:007.90 °C1009.80 hPa92.00 %6.70 °C 
05:00:008.00 °C1010.10 hPa92.00 %6.80 °C 
04:45:008.10 °C1010.40 hPa92.00 %6.90 °C 
04:30:008.30 °C1010.40 hPa92.00 %7.10 °C 
04:15:008.20 °C1010.60 hPa92.00 %7.00 °C 
04:00:008.30 °C1010.70 hPa92.00 %7.10 °C 
03:45:008.40 °C1011.00 hPa91.00 %7.00 °C 
03:30:008.60 °C1011.20 hPa91.00 %7.20 °C 
03:15:008.90 °C1011.30 hPa91.00 %7.50 °C 
03:00:009.00 °C1011.40 hPa91.00 %7.60 °C 
02:45:009.30 °C1011.50 hPa91.00 %7.92 km/hOSO9.30 °C7.90 °C 
02:30:009.40 °C1011.70 hPa91.00 %8.00 °C 
02:15:009.40 °C1012.00 hPa91.00 %8.00 °C 
02:00:009.50 °C1012.10 hPa90.00 %7.90 °C 
01:45:009.80 °C1012.00 hPa90.00 %8.20 °C 
01:30:009.90 °C1012.10 hPa89.00 %8.20 °C 
01:15:0010.30 °C1012.30 hPa89.00 %8.60 °C 
01:00:0010.30 °C1012.50 hPa89.00 %8.60 °C 
00:45:0010.50 °C1012.30 hPa87.00 %8.40 °C 
00:30:0011.10 °C1012.20 hPa87.00 %9.00 °C 
00:15:0011.60 °C1012.50 hPa87.00 %9.50 °C 
00:00:0011.80 °C1012.40 hPa87.00 %9.70 °C 

Permanenter Link zu dieser Seite: Wetter im Erzgebirge am 24.07.2017
Performance-Info: Die Erstellung der Seite / Statistik(en) / Tabelle(n) erforderte 5 Datenbankserver-Abfrage(n) und dauerte 98 Millisekunden. (Dieser Messwert ist von der Gesamt-Auslastung des Servers abhängig.)
Erzgebirge - Wetter | Erzgebirge - Wetter (Mobilgeräte) | Komplette Klimadatenbank